Time;durP1;ratioP1;P1;durP2;ratioP2;P2;SDS_P1;SDS_P2;PMS_P1;PMS_P2;Temp;Humidity;BMP_temperature;BMP_pressure;BME280_temperature;BME280_humidity;BME280_pressure;Samples;Min_cycle;Max_cycle;Signal;HPM_P1;HPM_P2
2021/10/25 00:00:56;;;;;;;5.93;4.87;;;9.50;99.90;;;;;;5090404;28;20258;-73
2021/10/25 00:03:23;;;;;;;11.47;6.07;;;9.60;99.90;;;;;;5090560;28;20209;-73
2021/10/25 00:05:50;;;;;;;8.80;6.47;;;9.60;99.90;;;;;;5090369;28;20209;-73
2021/10/25 00:08:18;;;;;;;6.13;5.27;;;9.60;99.90;;;;;;5091075;28;20205;-73
2021/10/25 00:10:46;;;;;;;8.30;5.37;;;9.50;99.90;;;;;;5090461;28;20258;-73
2021/10/25 00:13:13;;;;;;;8.20;6.20;;;9.40;99.90;;;;;;5090326;28;20210;-74
2021/10/25 00:15:40;;;;;;;9.77;6.30;;;9.30;99.90;;;;;;5090439;28;20213;-74
2021/10/25 00:18:07;;;;;;;7.93;5.40;;;9.30;99.90;;;;;;5089700;28;20221;-75
2021/10/25 00:20:35;;;;;;;8.43;6.57;;;9.20;99.90;;;;;;5090459;28;20555;-74
2021/10/25 00:23:03;;;;;;;10.87;6.73;;;9.20;99.90;;;;;;5089869;28;20254;-74
2021/10/25 00:25:30;;;;;;;8.97;6.40;;;9.00;99.90;;;;;;5090194;28;20210;-73
2021/10/25 00:27:58;;;;;;;10.97;6.00;;;9.10;99.90;;;;;;5089885;28;20209;-74
2021/10/25 00:30:26;;;;;;;9.20;5.40;;;9.20;99.90;;;;;;5090392;28;20213;-74
2021/10/25 00:32:53;;;;;;;7.80;5.87;;;9.30;99.90;;;;;;5089630;28;20738;-73
2021/10/25 00:35:20;;;;;;;8.87;5.77;;;9.30;99.90;;;;;;5090268;28;20206;-74
2021/10/25 00:37:47;;;;;;;9.20;5.77;;;9.20;99.90;;;;;;5090059;28;20309;-73
2021/10/25 00:40:15;;;;;;;8.27;5.87;;;9.10;99.90;;;;;;5090003;28;20292;-73
2021/10/25 00:42:42;;;;;;;9.13;5.63;;;8.90;99.90;;;;;;5089996;28;20201;-72
2021/10/25 00:45:10;;;;;;;8.83;5.27;;;8.80;99.90;;;;;;5089696;28;20677;-75
2021/10/25 00:47:37;;;;;;;8.27;4.47;;;9.00;99.90;;;;;;5090360;28;20275;-72
2021/10/25 00:50:05;;;;;;;11.33;5.90;;;9.00;99.90;;;;;;5089652;28;20206;-72
2021/10/25 00:52:33;;;;;;;6.53;4.73;;;9.00;99.90;;;;;;5090044;28;20279;-74
2021/10/25 00:55:00;;;;;;;7.47;5.20;;;9.10;99.90;;;;;;5089446;28;20198;-74
2021/10/25 00:57:27;;;;;;;7.27;4.90;;;9.10;99.90;;;;;;5065390;28;20202;-74
2021/10/25 00:59:54;;;;;;;7.83;5.13;;;9.10;99.90;;;;;;5093095;28;20628;-74
2021/10/25 01:02:23;;;;;;;8.93;5.80;;;9.10;99.90;;;;;;5093737;28;20209;-74
2021/10/25 01:04:50;;;;;;;9.30;6.60;;;9.10;99.90;;;;;;5093647;28;20206;-74
2021/10/25 01:07:17;;;;;;;7.80;5.80;;;9.00;99.90;;;;;;5093967;28;20227;-74
2021/10/25 01:09:45;;;;;;;8.53;6.43;;;8.90;99.90;;;;;;5094056;28;20213;-73
2021/10/25 01:12:12;;;;;;;6.00;5.03;;;9.00;99.90;;;;;;5093064;28;20279;-73
2021/10/25 01:14:39;;;;;;;10.73;6.33;;;9.10;99.90;;;;;;5093481;28;20620;-75
2021/10/25 01:17:06;;;;;;;7.60;6.10;;;9.20;99.90;;;;;;5093014;28;20250;-76
2021/10/25 01:19:34;;;;;;;8.20;5.73;;;9.20;99.90;;;;;;5093263;28;20225;-73
2021/10/25 01:22:03;;;;;;;7.27;5.67;;;9.20;99.90;;;;;;5092995;28;20213;-73
2021/10/25 01:24:30;;;;;;;6.47;5.60;;;9.20;99.90;;;;;;5093010;28;20233;-75
2021/10/25 01:26:57;;;;;;;7.83;5.47;;;9.20;99.90;;;;;;5092993;28;20258;-73
2021/10/25 01:29:24;;;;;;;11.87;5.70;;;9.10;99.90;;;;;;5093074;28;20197;-74
2021/10/25 01:31:51;;;;;;;7.03;5.80;;;9.00;99.90;;;;;;5093156;28;20260;-74
2021/10/25 01:34:19;;;;;;;8.77;6.37;;;9.00;99.90;;;;;;5093270;28;20209;-75
2021/10/25 01:36:46;;;;;;;6.97;6.27;;;9.00;99.90;;;;;;5093582;28;20806;-74
2021/10/25 01:39:14;;;;;;;11.17;5.80;;;8.90;99.90;;;;;;5092458;28;20779;-74
2021/10/25 01:41:41;;;;;;;10.33;5.67;;;8.80;99.90;;;;;;5093255;28;20205;-73
2021/10/25 01:44:12;;;;;;;8.23;5.27;;;8.80;99.90;;;;;;5092506;28;20201;-74
2021/10/25 01:46:41;;;;;;;10.03;6.60;;;8.90;99.90;;;;;;5092514;28;20267;-73
2021/10/25 01:49:08;;;;;;;8.43;5.23;;;8.80;99.90;;;;;;5092759;28;20566;-74
2021/10/25 01:51:36;;;;;;;9.70;5.93;;;8.80;99.90;;;;;;5081163;28;20255;-75
2021/10/25 01:54:04;;;;;;;9.13;6.07;;;8.80;99.90;;;;;;5072159;28;20210;-74
2021/10/25 01:56:33;;;;;;;8.47;6.07;;;8.80;99.90;;;;;;5072404;28;20600;-75
2021/10/25 01:59:00;;;;;;;10.60;5.10;;;8.70;99.90;;;;;;5071456;28;20222;-75
2021/10/25 02:01:27;;;;;;;6.87;5.23;;;8.70;99.90;;;;;;5072155;28;20210;-74
2021/10/25 02:03:54;;;;;;;7.33;5.67;;;8.60;99.90;;;;;;5071856;28;20206;-74
2021/10/25 02:06:21;;;;;;;9.03;6.17;;;8.60;99.90;;;;;;5072220;28;20218;-76
2021/10/25 02:08:48;;;;;;;8.83;6.43;;;8.60;99.90;;;;;;5071746;28;20210;-73
2021/10/25 02:11:15;;;;;;;10.77;6.03;;;8.60;99.90;;;;;;5072268;28;20565;-73
2021/10/25 02:13:45;;;;;;;9.70;5.47;;;8.60;99.90;;;;;;5071527;28;20214;-72
2021/10/25 02:16:12;;;;;;;5.80;4.60;;;8.50;99.90;;;;;;5071739;28;20728;-75
2021/10/25 02:18:39;;;;;;;8.87;5.30;;;8.50;99.90;;;;;;5072001;28;20225;-73
2021/10/25 02:21:06;;;;;;;8.27;5.23;;;8.40;99.90;;;;;;5071933;28;20264;-73
2021/10/25 02:23:34;;;;;;;9.70;6.23;;;8.40;99.90;;;;;;5072101;28;20260;-73
2021/10/25 02:26:01;;;;;;;8.53;7.03;;;8.50;99.90;;;;;;5071357;28;20216;-76
2021/10/25 02:28:29;;;;;;;10.67;5.80;;;8.40;99.90;;;;;;5071538;28;20260;-73
2021/10/25 02:30:57;;;;;;;6.27;4.43;;;8.40;99.90;;;;;;5071657;28;20209;-73
2021/10/25 02:33:24;;;;;;;10.07;5.63;;;8.40;99.90;;;;;;5072151;28;20206;-75
2021/10/25 02:35:52;;;;;;;12.00;4.97;;;8.40;99.90;;;;;;5071732;28;20218;-76
2021/10/25 02:38:19;;;;;;;9.03;4.87;;;8.40;99.90;;;;;;5071855;28;20263;-74
2021/10/25 02:40:47;;;;;;;8.90;5.70;;;8.30;99.90;;;;;;5071549;28;20210;-74
2021/10/25 02:43:14;;;;;;;11.13;5.93;;;8.20;99.90;;;;;;5071284;28;20578;-74
2021/10/25 02:45:41;;;;;;;7.67;5.63;;;8.20;99.90;;;;;;5071596;28;20209;-74
2021/10/25 02:48:10;;;;;;;7.23;5.20;;;8.20;99.90;;;;;;5071101;28;20677;-74
2021/10/25 02:50:37;;;;;;;6.80;5.87;;;8.20;99.90;;;;;;5071181;28;20678;-73
2021/10/25 02:53:07;;;;;;;6.77;5.30;;;8.20;99.90;;;;;;5070931;28;20669;-74
2021/10/25 02:55:34;;;;;;;6.13;4.87;;;8.10;99.90;;;;;;5071303;28;20202;-73
2021/10/25 02:58:01;;;;;;;7.13;5.77;;;8.10;99.90;;;;;;5070846;28;20206;-74
2021/10/25 03:00:28;;;;;;;9.90;5.77;;;8.10;99.90;;;;;;5071195;28;20709;-73
2021/10/25 03:02:55;;;;;;;7.50;5.30;;;8.10;99.90;;;;;;5070782;28;20264;-73
2021/10/25 03:05:24;;;;;;;7.43;5.30;;;8.10;99.90;;;;;;5071346;28;20263;-73
2021/10/25 03:07:51;;;;;;;7.47;5.40;;;8.10;99.90;;;;;;5070776;28;20210;-73
2021/10/25 03:10:18;;;;;;;7.50;4.57;;;8.00;99.90;;;;;;5071473;28;20210;-73
2021/10/25 03:12:46;;;;;;;6.83;5.90;;;8.00;99.90;;;;;;5071396;28;20674;-72
2021/10/25 03:15:14;;;;;;;7.00;4.90;;;8.00;99.90;;;;;;5070608;28;20202;-72
2021/10/25 03:17:41;;;;;;;7.27;5.17;;;8.00;99.90;;;;;;5070816;28;20709;-73
2021/10/25 03:20:10;;;;;;;7.17;4.77;;;7.90;99.90;;;;;;5069271;28;20710;-73
2021/10/25 03:22:39;;;;;;;5.60;4.87;;;7.90;99.90;;;;;;5070752;28;20301;-73
2021/10/25 03:25:07;;;;;;;8.77;5.20;;;7.90;99.90;;;;;;5070138;28;20206;-73
2021/10/25 03:27:35;;;;;;;6.17;4.83;;;7.90;99.90;;;;;;5070957;28;20209;-73
2021/10/25 03:30:02;;;;;;;9.70;5.07;;;7.90;99.90;;;;;;5070306;28;20222;-72
2021/10/25 03:32:29;;;;;;;5.00;4.20;;;7.90;99.90;;;;;;5070629;28;20662;-73
2021/10/25 03:34:56;;;;;;;6.73;4.83;;;7.80;99.90;;;;;;5070097;28;20693;-73
2021/10/25 03:37:23;;;;;;;10.17;4.83;;;7.70;99.90;;;;;;5070640;28;20202;-72
2021/10/25 03:39:52;;;;;;;4.90;4.40;;;7.70;99.90;;;;;;5070262;28;20739;-72
2021/10/25 03:42:25;;;;;;;4.50;4.03;;;7.70;99.90;;;;;;5070584;28;20240;-73
2021/10/25 03:44:55;;;;;;;6.40;4.40;;;7.60;99.90;;;;;;5070324;28;20263;-72
2021/10/25 03:47:26;;;;;;;7.57;4.87;;;7.60;99.90;;;;;;5070480;28;20203;-73
2021/10/25 03:49:56;;;;;;;5.30;4.27;;;7.70;99.90;;;;;;5070317;28;20206;-73
2021/10/25 03:52:27;;;;;;;6.80;3.57;;;7.70;99.90;;;;;;5070488;28;20230;-73
2021/10/25 03:55:04;;;;;;;6.60;5.30;;;7.70;99.90;;;;;;5069987;28;20289;-73
2021/10/25 04:28:01;;;;;;;5.73;3.80;;;7.40;99.90;;;;;;5069844;28;20285;-73
2021/10/25 04:30:31;;;;;;;7.20;4.87;;;7.40;99.90;;;;;;5070169;28;20336;-73
2021/10/25 04:32:58;;;;;;;6.70;4.13;;;7.50;99.90;;;;;;5073729;28;20218;-72
2021/10/25 04:35:25;;;;;;;4.83;3.80;;;7.50;99.90;;;;;;5073658;28;20206;-73
2021/10/25 04:37:52;;;;;;;10.27;5.73;;;7.40;99.90;;;;;;5073696;28;20268;-72
2021/10/25 04:40:19;;;;;;;5.43;3.87;;;7.40;99.90;;;;;;5073597;28;20774;-72
2021/10/25 04:42:46;;;;;;;7.63;4.30;;;7.40;99.90;;;;;;5074480;28;20267;-73
2021/10/25 04:45:18;;;;;;;6.40;4.27;;;7.40;99.90;;;;;;5073358;28;20214;-73
2021/10/25 04:47:45;;;;;;;4.27;3.87;;;7.30;99.90;;;;;;5074152;28;20226;-73
2021/10/25 04:50:12;;;;;;;7.90;5.33;;;7.30;99.90;;;;;;5073556;28;21125;-73
2021/10/25 04:52:39;;;;;;;6.90;3.90;;;7.30;99.90;;;;;;5073683;28;20279;-72
2021/10/25 04:55:07;;;;;;;5.97;3.80;;;7.30;99.90;;;;;;5073493;28;20263;-72
2021/10/25 04:57:34;;;;;;;4.13;3.33;;;7.40;99.90;;;;;;5073522;28;20199;-73
2021/10/25 05:00:01;;;;;;;6.60;4.00;;;7.40;99.90;;;;;;5072957;28;20230;-73
2021/10/25 05:02:30;;;;;;;3.93;3.53;;;7.40;99.90;;;;;;5073385;28;20206;-73
2021/10/25 05:04:57;;;;;;;4.93;3.20;;;7.40;99.90;;;;;;5073052;28;20217;-74
2021/10/25 05:07:24;;;;;;;4.50;4.03;;;7.40;99.90;;;;;;5073136;28;20557;-73
2021/10/25 05:09:51;;;;;;;5.40;3.87;;;7.30;99.90;;;;;;5073127;28;20673;-73
2021/10/25 05:12:18;;;;;;;6.50;4.07;;;7.30;99.90;;;;;;5073547;28;20206;-73
2021/10/25 05:14:45;;;;;;;6.70;3.60;;;7.30;99.90;;;;;;5073293;28;20267;-73
2021/10/25 05:17:12;;;;;;;4.50;3.57;;;7.20;99.90;;;;;;5073148;28;20291;-72
2021/10/25 05:19:42;;;;;;;6.47;3.90;;;7.10;99.90;;;;;;5072850;28;20651;-73
2021/10/25 05:22:09;;;;;;;4.93;3.53;;;7.00;99.90;;;;;;5072719;28;20293;-73
2021/10/25 05:24:36;;;;;;;6.93;3.17;;;6.90;99.90;;;;;;5073385;28;20291;-72
2021/10/25 05:27:06;;;;;;;5.00;3.60;;;6.90;99.90;;;;;;5072680;28;20202;-73
2021/10/25 05:29:33;;;;;;;8.33;4.07;;;7.10;99.90;;;;;;5072907;28;20692;-72
2021/10/25 05:32:01;;;;;;;6.00;4.60;;;7.00;99.90;;;;;;5072422;28;20612;-72
2021/10/25 05:34:29;;;;;;;13.17;6.53;;;7.00;99.90;;;;;;5073167;28;20210;-72
2021/10/25 05:36:57;;;;;;;8.20;5.53;;;7.10;99.90;;;;;;5072402;28;20217;-73
2021/10/25 05:39:24;;;;;;;5.53;4.27;;;7.10;99.90;;;;;;5072443;28;20669;-72
2021/10/25 05:41:52;;;;;;;6.67;4.00;;;7.10;99.90;;;;;;5071819;28;20221;-72
2021/10/25 05:44:21;;;;;;;10.03;6.30;;;7.10;99.90;;;;;;5072545;28;20259;-73
2021/10/25 05:46:48;;;;;;;7.87;5.90;;;7.10;99.90;;;;;;5072962;28;20554;-72
2021/10/25 05:49:15;;;;;;;7.00;5.13;;;7.10;99.90;;;;;;5072628;28;20206;-74
2021/10/25 05:51:42;;;;;;;7.53;4.57;;;7.00;99.90;;;;;;5072623;28;20629;-74
2021/10/25 05:54:10;;;;;;;4.87;4.17;;;7.00;99.90;;;;;;5072210;28;20582;-74
2021/10/25 05:56:37;;;;;;;8.20;3.87;;;7.00;99.90;;;;;;5072617;28;20217;-73
2021/10/25 05:59:05;;;;;;;6.10;4.97;;;7.00;99.90;;;;;;5071962;28;20252;-75
2021/10/25 06:01:38;;;;;;;7.13;4.53;;;7.00;99.90;;;;;;5072223;28;20218;-72
2021/10/25 06:04:07;;;;;;;8.43;4.17;;;7.00;99.90;;;;;;5071906;28;20263;-73
2021/10/25 06:06:34;;;;;;;5.83;4.40;;;7.00;99.90;;;;;;5072241;28;20207;-74
2021/10/25 06:09:03;;;;;;;5.10;4.07;;;7.10;99.90;;;;;;5072059;28;20283;-72
2021/10/25 06:11:33;;;;;;;4.83;3.63;;;7.10;99.90;;;;;;5072208;28;20206;-73
2021/10/25 06:14:02;;;;;;;6.30;4.00;;;7.00;99.90;;;;;;5071900;28;20714;-73
2021/10/25 06:16:37;;;;;;;5.37;3.53;;;7.00;99.90;;;;;;5072013;28;20210;-73
2021/10/25 06:19:04;;;;;;;5.50;3.70;;;6.80;99.90;;;;;;5071269;28;20284;-73
2021/10/25 06:21:32;;;;;;;6.70;4.30;;;6.80;99.90;;;;;;5071627;28;20217;-72
2021/10/25 06:23:59;;;;;;;4.93;4.00;;;6.70;99.90;;;;;;5071898;28;20267;-73
2021/10/25 06:26:27;;;;;;;7.10;3.73;;;6.50;99.90;;;;;;5071716;28;20220;-73
2021/10/25 06:28:56;;;;;;;6.93;4.70;;;6.50;99.90;;;;;;5071671;28;20205;-74
2021/10/25 06:31:25;;;;;;;7.70;5.27;;;6.60;99.90;;;;;;5072086;28;20266;-72
2021/10/25 06:33:53;;;;;;;8.87;6.17;;;6.70;99.90;;;;;;5070793;28;20240;-71
2021/10/25 06:36:21;;;;;;;9.17;5.63;;;6.60;99.90;;;;;;5072040;28;20251;-72
2021/10/25 06:38:54;;;;;;;12.23;6.10;;;6.80;99.90;;;;;;5071635;28;20218;-72
2021/10/25 06:41:23;;;;;;;15.43;6.27;;;6.70;99.90;;;;;;5071850;28;20337;-73
2021/10/25 06:43:50;;;;;;;12.07;6.77;;;6.90;99.90;;;;;;5071505;28;20206;-73
2021/10/25 06:46:20;;;;;;;12.30;5.33;;;6.90;99.90;;;;;;5071655;28;20210;-73
2021/10/25 06:48:47;;;;;;;12.93;5.67;;;6.90;99.90;;;;;;5071508;28;20275;-73
2021/10/25 06:51:16;;;;;;;14.77;5.43;;;7.00;99.90;;;;;;5071572;28;20255;-74
2021/10/25 06:53:59;;;;;;;8.97;4.03;;;7.00;99.90;;;;;;5070740;28;20319;-72
2021/10/25 06:56:26;;;;;;;5.43;3.97;;;7.10;99.90;;;;;;5071567;28;20206;-74
2021/10/25 06:58:54;;;;;;;8.57;3.70;;;7.10;99.90;;;;;;5070644;28;20213;-75
2021/10/25 07:01:25;;;;;;;6.40;4.00;;;7.20;99.90;;;;;;5070971;28;20245;-74
2021/10/25 07:03:52;;;;;;;5.87;4.00;;;7.40;99.90;;;;;;5071094;28;20206;-73
2021/10/25 07:06:19;;;;;;;5.80;4.07;;;7.60;99.90;;;;;;5069928;28;20206;-73
2021/10/25 07:08:48;;;;;;;5.53;3.63;;;7.60;99.90;;;;;;5060965;28;20268;-73
2021/10/25 07:11:16;;;;;;;6.30;4.17;;;7.70;99.90;;;;;;5070881;28;20212;-73
2021/10/25 07:13:46;;;;;;;4.43;3.97;;;7.70;99.90;;;;;;5070675;28;20678;-73
2021/10/25 07:16:17;;;;;;;9.80;4.07;;;7.70;99.90;;;;;;5069943;28;20226;-72
2021/10/25 07:18:56;;;;;;;7.80;4.67;;;7.70;99.90;;;;;;5071328;28;20251;-73
2021/10/25 08:00:41;;;;;;;8.10;4.37;;;8.80;99.90;;;;;;5068241;28;20225;-73
2021/10/25 08:03:42;;;;;;;4.87;3.87;;;8.90;99.90;;;;;;5069857;28;20213;-73
2021/10/25 08:06:17;;;;;;;7.43;4.50;;;8.90;99.90;;;;;;5069323;28;20213;-73
2021/10/25 08:08:52;;;;;;;5.97;4.43;;;9.00;99.90;;;;;;5070565;28;20266;-73
2021/10/25 08:11:21;;;;;;;6.20;4.30;;;9.10;99.90;;;;;;5070460;28;20202;-74
2021/10/25 08:13:48;;;;;;;8.77;3.70;;;9.30;99.90;;;;;;5070619;28;20202;-74
2021/10/25 08:16:24;;;;;;;6.10;2.67;;;9.40;99.90;;;;;;5069420;28;20209;-74
2021/10/25 08:19:11;;;;;;;5.93;3.30;;;9.60;99.90;;;;;;5070080;28;20202;-71
2021/10/25 08:21:38;;;;;;;6.40;3.67;;;9.80;99.90;;;;;;5070147;28;20214;-72
2021/10/25 08:24:07;;;;;;;9.27;3.67;;;9.90;99.90;;;;;;5069698;28;20625;-72
2021/10/25 08:26:34;;;;;;;8.57;4.53;;;9.80;99.90;;;;;;5069677;28;20673;-72
2021/10/25 08:29:03;;;;;;;4.63;3.27;;;9.80;99.90;;;;;;5064316;28;20206;-72
2021/10/25 08:31:33;;;;;;;6.43;4.77;;;9.90;99.90;;;;;;5070162;28;20210;-72
2021/10/25 08:42:11;;;;;;;12.03;3.77;;;10.40;99.90;;;;;;5066893;28;20688;-71
2021/10/25 08:44:38;;;;;;;5.93;3.07;;;10.70;99.90;;;;;;5069559;28;20252;-71
2021/10/25 08:47:06;;;;;;;5.30;3.57;;;10.80;99.90;;;;;;5067434;28;20213;-71
2021/10/25 08:49:33;;;;;;;4.07;2.73;;;10.80;99.90;;;;;;5070214;28;20211;-72
2021/10/25 08:52:01;;;;;;;4.23;2.97;;;10.90;99.90;;;;;;5069120;28;20681;-72
2021/10/25 08:54:31;;;;;;;4.03;3.20;;;11.00;99.90;;;;;;5069842;28;20292;-72
2021/10/25 08:57:00;;;;;;;4.30;3.20;;;11.10;99.90;;;;;;5069473;28;20206;-72
2021/10/25 08:59:28;;;;;;;6.87;2.97;;;11.30;99.90;;;;;;5069269;28;20661;-72
2021/10/25 09:02:05;;;;;;;4.87;3.00;;;11.50;99.90;;;;;;5068901;28;20226;-72
2021/10/25 09:04:33;;;;;;;6.70;3.23;;;11.70;99.90;;;;;;5069330;28;20214;-71
2021/10/25 09:07:00;;;;;;;7.20;2.63;;;11.70;99.90;;;;;;5069228;28;20731;-72
2021/10/25 09:09:29;;;;;;;4.50;2.70;;;11.70;99.90;;;;;;5069354;28;20206;-72
2021/10/25 09:11:57;;;;;;;5.63;2.80;;;11.70;99.90;;;;;;5069195;28;20203;-72
2021/10/25 09:14:24;;;;;;;8.00;3.47;;;11.80;99.90;;;;;;5069244;28;20206;-72
2021/10/25 09:16:56;;;;;;;3.33;2.13;;;12.10;99.90;;;;;;5069299;28;20746;-72
2021/10/25 09:19:24;;;;;;;2.97;2.20;;;12.30;99.90;;;;;;5072553;28;20316;-72
2021/10/25 09:21:51;;;;;;;4.20;2.23;;;12.40;99.90;;;;;;5072539;28;20226;-72
2021/10/25 09:24:23;;;;;;;3.30;2.43;;;12.70;99.90;;;;;;5073344;28;20561;-71
2021/10/25 09:27:01;;;;;;;5.33;2.27;;;12.80;99.90;;;;;;5072605;28;20678;-72
2021/10/25 09:29:31;;;;;;;3.93;2.30;;;12.70;99.90;;;;;;5073114;28;20287;-72
2021/10/25 09:32:05;;;;;;;3.97;2.40;;;12.90;99.90;;;;;;5072324;28;20293;-72
2021/10/25 09:34:40;;;;;;;2.85;1.92;;;13.00;99.90;;;;;;5072723;28;20206;-80
2021/10/25 09:37:11;;;;;;;2.35;1.70;;;13.30;99.90;;;;;;5068536;28;20677;-85
2021/10/25 09:39:47;;;;;;;1.77;1.55;;;13.60;99.90;;;;;;5066004;28;20563;-80
2021/10/25 09:45:36;;;;;;;4.80;1.98;;;14.40;99.90;;;;;;5064964;28;20210;-81
2021/10/25 09:50:57;;;;;;;4.32;2.55;;;17.20;99.90;;;;;;5071775;28;20220;-74
2021/10/25 09:53:36;;;;;;;3.55;2.95;;;19.10;99.90;;;;;;5072440;28;20226;-74
2021/10/25 09:56:04;;;;;;;3.60;3.20;;;23.40;99.90;;;;;;5071622;28;20198;-74
2021/10/25 09:58:44;;;;;;;7.32;3.53;;;22.70;99.90;;;;;;5072640;28;20211;-75
2021/10/25 10:01:14;;;;;;;7.45;3.45;;;19.90;99.90;;;;;;5071893;28;20225;-75
2021/10/25 10:03:45;;;;;;;5.80;3.53;;;17.70;99.90;;;;;;5070761;28;20609;-77
2021/10/25 10:06:12;;;;;;;6.22;4.32;;;18.30;99.90;;;;;;5071467;28;20488;-77
2021/10/25 10:08:40;;;;;;;4.90;3.60;;;17.80;99.90;;;;;;5071845;28;20251;-77
2021/10/25 10:11:09;;;;;;;5.85;3.70;;;17.70;99.90;;;;;;5071490;28;20260;-77
2021/10/25 10:13:38;;;;;;;5.95;3.85;;;16.30;99.90;;;;;;5072311;28;20209;-72
2021/10/25 10:16:06;;;;;;;8.30;3.20;;;15.70;99.90;;;;;;5071826;28;20206;-74
2021/10/25 10:18:35;;;;;;;4.75;2.75;;;15.40;99.90;;;;;;5072011;28;20285;-79
2021/10/25 10:21:05;;;;;;;5.43;3.70;;;15.10;99.90;;;;;;5071305;28;20373;-73
2021/10/25 10:23:34;;;;;;;19.80;3.70;;;15.20;99.90;;;;;;5070982;28;20716;-73
2021/10/25 10:26:03;;;;;;;4.30;3.17;;;15.10;99.90;;;;;;5059182;28;20208;-72
2021/10/25 10:28:40;;;;;;;5.75;3.58;;;15.20;99.90;;;;;;5068585;28;20202;-74
2021/10/25 10:31:09;;;;;;;7.05;3.85;;;15.20;99.90;;;;;;5071027;28;20247;-73
2021/10/25 10:33:40;;;;;;;7.93;3.10;;;15.30;99.90;;;;;;5071319;28;20205;-73
2021/10/25 10:36:16;;;;;;;8.43;3.42;;;15.40;99.90;;;;;;5061274;28;20210;-72
2021/10/25 10:38:45;;;;;;;4.80;2.30;;;15.40;99.90;;;;;;5071441;28;20283;-73
2021/10/25 10:41:13;;;;;;;3.85;2.35;;;15.40;99.90;;;;;;5060648;28;20291;-72
2021/10/25 10:43:42;;;;;;;4.50;3.10;;;15.40;99.90;;;;;;5066427;28;20739;-79
2021/10/25 10:46:13;;;;;;;3.00;1.88;;;15.40;99.90;;;;;;5062653;28;20202;-73
2021/10/25 10:48:45;;;;;;;3.85;1.95;;;15.50;99.90;;;;;;5068410;28;20207;-73
2021/10/25 10:51:15;;;;;;;5.90;1.75;;;15.50;99.90;;;;;;5070656;28;20206;-76
2021/10/25 10:53:52;;;;;;;3.83;2.47;;;15.50;99.90;;;;;;5071295;28;20622;-73
2021/10/25 10:56:24;;;;;;;7.80;1.42;;;15.50;99.90;;;;;;5059349;28;20205;-73
2021/10/25 10:59:04;;;;;;;3.47;1.90;;;15.60;99.90;;;;;;5071162;28;20215;-72
2021/10/25 11:01:32;;;;;;;2.45;1.88;;;15.70;99.90;;;;;;5071050;28;20336;-76
2021/10/25 11:04:01;;;;;;;4.43;1.73;;;15.70;99.90;;;;;;5070944;28;20279;-75
2021/10/25 11:06:32;;;;;;;4.15;1.92;;;15.80;99.90;;;;;;5070817;28;20201;-77
2021/10/25 11:09:07;;;;;;;4.05;2.40;;;15.90;99.90;;;;;;5070321;28;20205;-73
2021/10/25 11:11:36;;;;;;;3.90;2.65;;;15.90;99.90;;;;;;5070895;28;20259;-73
2021/10/25 11:14:11;;;;;;;3.38;2.45;;;16.00;99.90;;;;;;5070747;28;20215;-74
2021/10/25 11:16:41;;;;;;;1.70;1.42;;;16.00;99.90;;;;;;5068189;28;20588;-73
2021/10/25 11:19:11;;;;;;;7.28;2.30;;;16.10;99.90;;;;;;5070340;28;20584;-73
2021/10/25 11:21:39;;;;;;;2.08;1.65;;;16.20;99.90;;;;;;5070305;28;20697;-73
2021/10/25 11:24:09;;;;;;;4.25;1.77;;;16.30;99.90;;;;;;5070355;28;20253;-73
2021/10/25 11:26:39;;;;;;;4.07;2.15;;;16.30;99.90;;;;;;5070515;28;20202;-72
2021/10/25 11:29:10;;;;;;;2.58;1.92;;;16.30;99.90;;;;;;5070142;28;20684;-73
2021/10/25 11:31:40;;;;;;;4.10;1.73;;;16.50;99.90;;;;;;5070711;28;20209;-73
2021/10/25 11:34:18;;;;;;;3.20;1.83;;;16.60;99.90;;;;;;5070217;28;20730;-73
2021/10/25 11:37:00;;;;;;;5.45;2.55;;;16.70;99.90;;;;;;5070558;28;20586;-72
2021/10/25 11:39:40;;;;;;;5.47;2.08;;;16.70;99.90;;;;;;5070239;28;20245;-73
2021/10/25 11:42:09;;;;;;;3.88;2.33;;;16.80;99.90;;;;;;5069303;28;20301;-73
2021/10/25 11:44:38;;;;;;;3.83;2.20;;;16.90;99.90;;;;;;5070681;28;20260;-74
2021/10/25 11:47:05;;;;;;;2.25;2.03;;;17.00;99.90;;;;;;5069836;28;20202;-74
2021/10/25 11:49:36;;;;;;;5.47;1.85;;;17.00;99.90;;;;;;5070703;28;20206;-73
2021/10/25 11:52:04;;;;;;;2.28;1.52;;;17.00;99.90;;;;;;5069870;28;20233;-73
2021/10/25 11:54:31;;;;;;;2.03;1.35;;;16.90;99.90;;;;;;5065675;28;20297;-72
2021/10/25 11:56:58;;;;;;;4.30;2.55;;;17.00;99.90;;;;;;5069736;28;20214;-73
2021/10/25 11:59:25;;;;;;;3.33;1.88;;;17.00;99.90;;;;;;5070402;28;20206;-74
2021/10/25 12:01:55;;;;;;;3.97;1.90;;;17.20;99.90;;;;;;5070292;28;20234;-73
2021/10/25 12:04:22;;;;;;;3.55;2.25;;;17.40;99.90;;;;;;5070496;28;20209;-74
2021/10/25 12:06:57;;;;;;;2.85;2.22;;;17.50;99.90;;;;;;5070202;28;20670;-73
2021/10/25 12:09:31;;;;;;;7.22;2.75;;;17.50;99.90;;;;;;5070261;28;20209;-72
2021/10/25 12:12:05;;;;;;;5.55;2.30;;;17.40;99.90;;;;;;5057033;28;20205;-72
2021/10/25 12:14:36;;;;;;;3.35;1.90;;;17.50;99.90;;;;;;5069668;28;20700;-73
2021/10/25 12:17:05;;;;;;;2.33;1.70;;;17.70;99.90;;;;;;5069887;28;20206;-73
2021/10/25 12:19:32;;;;;;;3.67;2.00;;;17.80;99.90;;;;;;5070202;28;20673;-72
2021/10/25 12:22:09;;;;;;;5.30;2.60;;;17.80;99.90;;;;;;5069454;28;20230;-73
2021/10/25 12:24:39;;;;;;;9.30;2.35;;;17.60;99.90;;;;;;5070136;28;20202;-73
2021/10/25 12:27:08;;;;;;;4.75;2.00;;;17.70;99.90;;;;;;5069687;28;20286;-74
2021/10/25 12:29:35;;;;;;;3.22;1.98;;;17.60;99.90;;;;;;5070488;28;20263;-72
2021/10/25 12:32:11;;;;;;;5.10;1.70;;;17.60;99.90;;;;;;5069742;28;20206;-73
2021/10/25 12:35:03;;;;;;;2.53;1.80;;;17.70;99.90;;;;;;5070224;28;20206;-73
2021/10/25 12:37:32;;;;;;;4.53;2.10;;;17.60;99.90;;;;;;5062336;28;20253;-72
2021/10/25 12:40:00;;;;;;;2.65;1.40;;;17.60;99.90;;;;;;5065085;28;20214;-73
2021/10/25 12:42:39;;;;;;;3.72;1.60;;;17.70;99.90;;;;;;5069968;28;20233;-73
2021/10/25 12:45:16;;;;;;;3.17;1.35;;;17.60;99.90;;;;;;5069868;28;20296;-72
2021/10/25 12:47:44;;;;;;;3.15;1.17;;;17.50;99.90;;;;;;5069877;28;20208;-73
2021/10/25 12:50:14;;;;;;;1.55;1.23;;;17.60;99.90;;;;;;5069406;28;21003;-73
2021/10/25 12:52:42;;;;;;;4.68;2.38;;;17.60;99.90;;;;;;5057891;28;20293;-73
2021/10/25 12:55:09;;;;;;;3.95;1.50;;;17.70;99.90;;;;;;5073379;28;20650;-72
2021/10/25 12:57:38;;;;;;;2.92;1.20;;;17.90;99.90;;;;;;5073286;28;20232;-72
2021/10/25 13:00:09;;;;;;;3.08;1.42;;;17.90;99.90;;;;;;5073072;28;20210;-73
2021/10/25 13:02:43;;;;;;;2.72;1.35;;;17.80;99.90;;;;;;5073517;28;20234;-73
2021/10/25 13:05:15;;;;;;;1.98;1.10;;;17.80;99.90;;;;;;5072994;28;20252;-73
2021/10/25 13:07:47;;;;;;;2.97;2.15;;;17.80;99.90;;;;;;5073241;28;20751;-73
2021/10/25 13:10:15;;;;;;;4.53;1.67;;;17.90;99.90;;;;;;5073443;28;20573;-73
2021/10/25 13:12:42;;;;;;;2.80;1.23;;;17.90;99.90;;;;;;5073723;28;20206;-73
2021/10/25 13:15:10;;;;;;;1.52;1.23;;;17.90;99.90;;;;;;5072729;28;20691;-73
2021/10/25 13:17:37;;;;;;;2.30;0.82;;;17.90;99.90;;;;;;5073428;28;20206;-72
2021/10/25 13:20:05;;;;;;;5.28;1.15;;;18.10;99.90;;;;;;5072441;28;20206;-73
2021/10/25 13:22:33;;;;;;;2.85;0.93;;;18.10;99.90;;;;;;5073269;28;20238;-73
2021/10/25 13:25:00;;;;;;;2.85;1.23;;;18.10;99.90;;;;;;5072786;28;20255;-73
2021/10/25 13:27:27;;;;;;;2.00;1.10;;;18.10;99.90;;;;;;5073399;28;20260;-72
2021/10/25 13:29:54;;;;;;;1.35;1.20;;;18.10;99.90;;;;;;5072421;28;20263;-73
2021/10/25 13:32:23;;;;;;;2.28;1.27;;;18.30;99.90;;;;;;5072965;28;20206;-75
2021/10/25 13:34:51;;;;;;;1.70;1.35;;;18.30;99.90;;;;;;5072468;28;20209;-74
2021/10/25 13:37:18;;;;;;;6.90;0.77;;;18.20;99.90;;;;;;5072689;28;20727;-73
2021/10/25 13:39:46;;;;;;;3.20;1.20;;;18.20;99.90;;;;;;5073045;28;20203;-74
2021/10/25 13:42:15;;;;;;;2.25;1.45;;;18.20;99.90;;;;;;5072198;28;20324;-73
2021/10/25 13:44:42;;;;;;;0.90;0.70;;;18.30;99.90;;;;;;5072964;28;20202;-73
2021/10/25 13:47:09;;;;;;;0.82;0.77;;;18.40;99.90;;;;;;5072384;28;20202;-74
2021/10/25 13:49:36;;;;;;;1.35;1.08;;;18.40;99.90;;;;;;5072500;28;20735;-73
2021/10/25 13:52:04;;;;;;;1.58;0.93;;;18.40;99.90;;;;;;5072037;28;20735;-75
2021/10/25 13:54:32;;;;;;;6.22;1.00;;;18.30;99.90;;;;;;5072821;28;20206;-73
2021/10/25 13:57:01;;;;;;;0.93;0.55;;;18.20;99.90;;;;;;5072515;28;20244;-73
2021/10/25 13:59:29;;;;;;;1.13;1.02;;;18.10;99.90;;;;;;5072382;28;20289;-75
2021/10/25 14:01:56;;;;;;;2.67;1.27;;;18.30;99.90;;;;;;5071742;28;20226;-72
2021/10/25 14:04:23;;;;;;;3.05;0.88;;;18.40;99.90;;;;;;5071398;28;20234;-74
2021/10/25 14:06:50;;;;;;;0.82;0.73;;;18.50;99.90;;;;;;5072656;28;20263;-75
2021/10/25 14:09:17;;;;;;;1.52;0.65;;;18.50;99.90;;;;;;5072326;28;20551;-73
2021/10/25 14:11:46;;;;;;;1.27;0.60;;;18.70;99.90;;;;;;5072463;28;20210;-74
2021/10/25 14:14:19;;;;;;;1.10;0.70;;;18.70;99.90;;;;;;5071705;28;20723;-77
2021/10/25 14:16:55;;;;;;;6.25;1.10;;;18.70;99.90;;;;;;5072319;28;20692;-74
2021/10/25 14:19:25;;;;;;;2.50;0.90;;;18.70;99.90;;;;;;5072380;28;20293;-77
2021/10/25 14:21:53;;;;;;;2.45;0.80;;;18.50;99.90;;;;;;5071802;28;20234;-74
2021/10/25 14:24:21;;;;;;;0.63;0.52;;;18.40;99.90;;;;;;5072105;28;20255;-74
2021/10/25 14:26:49;;;;;;;2.00;0.70;;;18.40;99.90;;;;;;5072283;28;20256;-75